LFBU 261500Z AUTO 36009KT 330V040 CAVOK 27/10 Q1015 NOSIG

ElémentsDécodage
LFBU Station météo située sur l'aérodrome de ANGOULEME Brie-Champniers
261500Z émis le 26 du mois à 15h00 UTC
AUTO Bulletin édité par un automate
36009KT vent du 360°, 09 noeuds
330V040 vent de direction variable entre 330° et 040°
CAVOK Ceiling And Visibility OK
- Visibilité de 10 Km ou plus
- Pas de nuage au-dessous de 1500m ou au-dessous de l'altitude minimale du secteur la plus élevée (si>1500m) et absence de CB
- pas de temps présent significatif
27/10 température 27°C, point de rosée 10°C
 soit une humidité relative de 34%
Q1015 la pression au niveau de la mer (QNH) est de 1015 hPa
NOSIG Pas de changement significatif prévu au cours des deux heures suivant l'heure de l'observation